Weather at Suarez Aviación Airport

Public forecast

Using degrees Celsius for public forecast. Weather courtesy of forecast.io.

Closest aviation weather report (METAR) to Suarez Aviación Airport

Closest report is Area De Material Airport, 62.5 nm (115.7 km) SW. Retrieved 2022/01/22 20:00 UTC (19 minutes ago):

SAOC 222000Z 05009KT 9999 BKN008 OVC012 21/19 Q1008

Closest aviation forecast (TAF) to Suarez Aviación Airport

Forecast is more than 12 hours old.

Closest forecast is Area De Material Airport, 62.5 nm (115.7 km) SW. Retrieved 2022/01/17 12:00 UTC (5 days ago):

TAF SAOC 171100Z 1712/1712 20010KT 5000 RA BKN015 FEW050CB TX29/1718Z TN15/1809Z BECMG 1714/1716 18015KT 9999 SCT040 BECMG 1800/1802 09015KT 7000 RA BKN015 OVC040